Terminal Aerodrome Forecast
Issued by NWS Sterling, VA

Home | Current Version | Previous Version | Text Only | Print | Product List | Glossary On
Versions: 1 2 3 4 5 6 7 8 9 10 11 12 13 14
253
FTUS41 KLWX 220830 AAA
TAFMRB
TAF AMD
KMRB 220830Z 2209/2306 00000KT 6SM BR SCT250
     FM221200 VRB03KT P6SM SCT250
     FM221600 14007KT P6SM SCT250
     FM230000 VRB03KT P6SM SCT250=

USA.gov is the U.S. government's official web portal to all federal, state and local government web resources and services.